New Corn Hill, Texas
Current Conditions -  °F | °C
As of 10:03 AM on Thursday 29 Jan 2015 (Local Time) from KGTU Reporting Station
Clear Clear  
Wind Chill: 63°   Ceiling: Unl
Heat Index: 63°   Visibility: 10mi
Dew Point: 54°   Wind: 5mph
Humidity: 72%   Direction: 220°SW
Pressure: 30.26"   Gusts: NA
Location:  30.7535°N, 97.5973°W
Report Text: KGTU 291603Z 22004KT 10SM CLR 17/12 A3026
Loading
Personal Weather Stations






























Interactive Weather Map New forecast layout! Learn more

10-Day Weather Forecast

Advertisements
Track Severe Weather on mobile